Time;durP1;ratioP1;P1;durP2;ratioP2;P2;SDS_P1;SDS_P2;PMS_P1;PMS_P2;Temp;Humidity;BMP_temperature;BMP_pressure;BME280_temperature;BME280_humidity;BME280_pressure;Samples;Min_cycle;Max_cycle;Signal;HPM_P1;HPM_P2
2021/03/29 00:00:22;;;;;;;7.53;4.18;;;;;;;5.03;95.76;97422.81;1031626;28;20025;-56
2021/03/29 00:00:53;;;;;;;7.85;4.20;;;;;;;5.04;95.85;97425.34;1027479;28;20125;-58
2021/03/29 00:01:24;;;;;;;8.65;4.82;;;;;;;5.02;96.12;97422.00;1035699;28;20022;-57
2021/03/29 00:01:55;;;;;;;8.18;3.90;;;;;;;5.01;95.89;97422.94;1035561;28;20105;-57
2021/03/29 00:02:26;;;;;;;6.90;3.75;;;;;;;5.01;96.67;97425.56;1035633;28;20029;-57
2021/03/29 00:02:58;;;;;;;10.35;4.18;;;;;;;5.00;96.71;97420.41;1031467;28;20026;-57
2021/03/29 00:03:28;;;;;;;6.72;3.78;;;;;;;5.02;96.17;97427.25;1031556;28;20029;-60
2021/03/29 00:04:00;;;;;;;5.93;3.50;;;;;;;5.01;96.32;97422.94;1031492;28;20033;-58
2021/03/29 00:04:31;;;;;;;9.02;3.53;;;;;;;5.00;96.46;97421.25;1039757;28;20041;-57
2021/03/29 00:05:01;;;;;;;6.78;3.90;;;;;;;5.01;96.44;97416.81;1039542;28;20514;-57
2021/03/29 00:05:32;;;;;;;9.20;3.80;;;;;;;5.00;96.34;97418.63;1031638;28;20029;-57
2021/03/29 00:06:03;;;;;;;10.30;3.95;;;;;;;5.00;96.91;97416.00;1031774;28;20030;-58
2021/03/29 00:06:35;;;;;;;7.40;3.67;;;;;;;5.01;96.79;97422.94;1040616;28;20459;-58
2021/03/29 00:07:06;;;;;;;9.02;4.35;;;;;;;5.00;96.65;97417.75;1040396;28;20052;-57
2021/03/29 00:07:36;;;;;;;7.25;3.75;;;;;;;5.01;97.06;97416.81;1032455;28;20116;-57
2021/03/29 00:08:17;;;;;;;8.20;3.58;;;;;;;5.01;96.55;97422.94;1032489;28;20030;-56
2021/03/29 00:08:47;;;;;;;6.75;4.22;;;;;;;5.04;96.69;97417.47;1032510;28;20030;-58
2021/03/29 00:09:18;;;;;;;10.73;4.35;;;;;;;5.05;97.39;97419.16;1029775;28;20110;-57
2021/03/29 00:09:49;;;;;;;8.38;3.47;;;;;;;5.05;97.07;97413.88;1032365;28;20022;-57
2021/03/29 00:10:19;;;;;;;7.47;4.03;;;;;;;5.04;97.11;97417.47;1032280;28;20041;-58
2021/03/29 00:10:52;;;;;;;7.45;3.63;;;;;;;5.04;97.39;97419.25;1032336;28;20113;-57
2021/03/29 00:11:23;;;;;;;8.80;3.88;;;;;;;5.03;97.07;97415.78;1036332;28;20026;-56
2021/03/29 00:11:55;;;;;;;6.50;3.58;;;;;;;5.04;97.24;97414.00;1036445;28;20064;-56
2021/03/29 00:12:26;;;;;;;7.18;4.00;;;;;;;5.05;97.46;97420.94;1040390;28;20506;-58
2021/03/29 00:12:56;;;;;;;8.90;4.13;;;;;;;5.03;97.20;97415.78;1040459;28;20116;-57
2021/03/29 00:13:29;;;;;;;8.07;4.43;;;;;;;5.04;97.23;97420.09;1036227;28;20025;-56
2021/03/29 00:14:00;;;;;;;5.47;3.45;;;;;;;5.05;97.21;97416.53;1032333;28;20224;-57
2021/03/29 00:14:31;;;;;;;8.25;4.00;;;;;;;5.05;96.95;97416.53;1032376;28;20110;-57
2021/03/29 00:15:04;;;;;;;8.82;3.33;;;;;;;5.06;97.12;97417.34;1032395;28;20032;-58
2021/03/29 00:15:39;;;;;;;10.20;3.90;;;;;;;5.06;97.06;97420.00;1036403;28;20041;-56
2021/03/29 00:16:10;;;;;;;10.05;3.75;;;;;;;5.07;97.51;97413.78;1036377;28;20017;-59
2021/03/29 00:16:41;;;;;;;6.93;3.63;;;;;;;5.06;97.02;97414.72;1036348;28;20025;-56
2021/03/29 00:17:13;;;;;;;7.18;3.58;;;;;;;5.06;97.46;97414.72;1032479;28;20026;-58
2021/03/29 00:17:44;;;;;;;6.70;3.58;;;;;;;5.06;97.08;97414.72;1032354;28;20018;-58
2021/03/29 00:18:15;;;;;;;6.25;3.10;;;;;;;5.04;97.70;97421.88;1032315;28;20022;-57
2021/03/29 00:18:46;;;;;;;9.07;4.10;;;;;;;5.04;98.03;97417.47;1036382;28;20026;-57
2021/03/29 00:19:17;;;;;;;8.32;3.50;;;;;;;5.03;97.74;97415.78;1040544;28;20021;-57
2021/03/29 00:19:48;;;;;;;9.32;3.88;;;;;;;5.03;98.37;97417.56;1040380;28;20414;-55
2021/03/29 00:20:21;;;;;;;8.00;4.38;;;;;;;5.04;97.86;97417.47;1036369;28;20419;-57
2021/03/29 00:21:04;;;;;;;7.22;4.03;;;;;;;5.06;98.43;97420.81;1032281;28;20113;-57
2021/03/29 00:21:36;;;;;;;8.35;3.83;;;;;;;5.07;98.78;97422.53;1032208;28;20113;-57
2021/03/29 00:22:06;;;;;;;7.75;3.53;;;;;;;5.07;98.40;97422.53;1040433;28;20104;-57
2021/03/29 00:22:38;;;;;;;8.55;4.00;;;;;;;5.05;98.45;97416.53;1036355;28;20507;-57
2021/03/29 00:23:09;;;;;;;8.60;3.60;;;;;;;5.03;99.43;97415.78;1032331;28;20411;-57
2021/03/29 00:23:39;;;;;;;10.10;3.58;;;;;;;5.02;99.64;97419.34;1032044;28;20026;-57
2021/03/29 00:24:10;;;;;;;7.97;3.60;;;;;;;5.02;99.73;97416.72;1028354;28;20110;-58
2021/03/29 00:24:41;;;;;;;6.93;3.45;;;;;;;5.01;99.98;97409.75;1032324;28;20029;-56
2021/03/29 00:25:14;;;;;;;6.65;3.95;;;;;;;5.04;99.80;97422.72;1036429;28;20097;-57
2021/03/29 00:25:45;;;;;;;9.15;4.15;;;;;;;5.02;99.68;97418.53;1032193;28;20034;-55
2021/03/29 00:26:16;;;;;;;7.55;3.70;;;;;;;5.03;99.81;97420.19;1040465;28;20558;-58
2021/03/29 00:26:46;;;;;;;8.57;3.53;;;;;;;5.04;100.00;97420.09;1041009;28;20025;-57
2021/03/29 00:27:17;;;;;;;7.22;3.47;;;;;;;5.04;99.78;97414.00;1040439;28;20021;-58
2021/03/29 00:27:48;;;;;;;6.47;3.65;;;;;;;5.02;100.00;97422.00;1032245;28;20030;-58
2021/03/29 00:28:19;;;;;;;11.50;3.90;;;;;;;5.01;100.00;97417.66;1032408;28;20019;-57
2021/03/29 00:28:50;;;;;;;8.18;3.70;;;;;;;5.00;100.00;97416.00;1032284;28;20018;-59
2021/03/29 00:29:21;;;;;;;6.50;3.80;;;;;;;5.00;100.00;97415.13;1040477;28;20573;-56
2021/03/29 00:29:52;;;;;;;6.03;3.30;;;;;;;4.99;100.00;97418.72;1032386;28;20034;-56
2021/03/29 00:30:27;;;;;;;8.90;3.13;;;;;;;4.98;100.00;97423.16;1036168;28;20024;-57
2021/03/29 00:30:58;;;;;;;8.63;4.28;;;;;;;4.98;100.00;97417.88;1032347;28;20274;-58
2021/03/29 00:31:29;;;;;;;7.88;3.47;;;;;;;4.98;100.00;97414.41;1036329;28;20022;-58
2021/03/29 00:32:00;;;;;;;6.05;3.55;;;;;;;4.95;100.00;97423.34;1032114;28;20053;-56
2021/03/29 00:32:31;;;;;;;6.85;3.85;;;;;;;4.95;100.00;97418.09;1032260;28;20030;-57
2021/03/29 00:33:03;;;;;;;7.63;3.95;;;;;;;4.97;100.00;97416.19;1036407;28;20025;-58
2021/03/29 00:33:34;;;;;;;6.43;3.22;;;;;;;4.96;100.00;97411.88;1040238;28;20048;-57
2021/03/29 00:34:05;;;;;;;6.07;3.78;;;;;;;4.96;100.00;97419.75;1036064;28;20426;-58
2021/03/29 00:34:35;;;;;;;8.07;3.95;;;;;;;4.97;100.00;97418.00;1036339;28;20065;-56
2021/03/29 00:35:06;;;;;;;4.88;3.20;;;;;;;4.97;100.00;97421.47;1032282;28;20026;-57
2021/03/29 00:35:38;;;;;;;6.68;3.88;;;;;;;4.96;100.00;97418.94;1036370;28;20112;-58
2021/03/29 00:36:10;;;;;;;6.53;3.70;;;;;;;4.91;100.00;97411.34;1032242;28;20128;-58
2021/03/29 00:36:41;;;;;;;9.95;3.90;;;;;;;4.95;100.00;97423.34;1036329;28;20060;-58
2021/03/29 00:37:12;;;;;;;7.25;3.95;;;;;;;4.94;100.00;97419.03;1036323;28;20028;-57
2021/03/29 00:37:45;;;;;;;7.72;3.55;;;;;;;4.92;100.00;97418.28;1032270;28;20049;-58
2021/03/29 00:38:16;;;;;;;6.57;3.33;;;;;;;4.93;100.00;97419.13;1036191;28;20029;-56
2021/03/29 00:38:48;;;;;;;9.23;3.85;;;;;;;4.93;100.00;97420.00;1036326;28;20171;-58
2021/03/29 00:39:20;;;;;;;8.15;3.58;;;;;;;4.92;100.00;97420.94;1036414;28;20407;-58
2021/03/29 00:39:51;;;;;;;5.30;3.38;;;;;;;4.92;100.00;97413.03;1040466;28;20029;-56
2021/03/29 00:40:22;;;;;;;8.07;3.53;;;;;;;4.91;100.00;97417.47;1032054;28;20030;-56
2021/03/29 00:40:54;;;;;;;8.02;3.92;;;;;;;4.90;100.00;97414.94;1032298;28;20046;-58
2021/03/29 00:41:25;;;;;;;8.20;3.63;;;;;;;4.82;100.00;97409.34;1036328;28;20459;-58
2021/03/29 00:41:56;;;;;;;8.35;3.90;;;;;;;4.89;100.00;97418.50;1032163;28;20113;-58
2021/03/29 00:42:26;;;;;;;6.10;3.30;;;;;;;4.88;100.00;97416.84;1032077;28;20053;-57
2021/03/29 00:43:00;;;;;;;9.25;3.63;;;;;;;4.89;100.00;97421.13;1036316;28;20017;-57
2021/03/29 00:43:32;;;;;;;8.10;3.67;;;;;;;4.88;100.00;97412.41;1040257;28;20091;-56
2021/03/29 00:44:04;;;;;;;7.85;3.67;;;;;;;4.88;100.00;97419.47;1036242;28;20028;-59
2021/03/29 00:44:34;;;;;;;9.65;4.05;;;;;;;4.89;100.00;97415.88;1036215;28;20029;-56
2021/03/29 00:45:09;;;;;;;7.55;4.10;;;;;;;4.91;100.00;97413.97;1032344;28;20019;-57
2021/03/29 00:45:40;;;;;;;6.40;3.67;;;;;;;4.90;100.00;97412.31;1033077;28;20019;-58
2021/03/29 00:46:12;;;;;;;5.18;3.13;;;;;;;4.90;100.00;97421.03;1045274;28;20167;-58
2021/03/29 00:46:43;;;;;;;8.05;4.10;;;;;;;4.90;100.00;97415.75;1040247;28;20108;-58
2021/03/29 00:47:14;;;;;;;7.38;3.90;;;;;;;4.90;100.00;97420.19;1028241;28;20038;-56
2021/03/29 00:47:45;;;;;;;7.82;4.00;;;;;;;4.89;100.00;97416.72;1036218;28;20108;-58
2021/03/29 00:48:17;;;;;;;8.85;4.03;;;;;;;4.89;100.00;97416.72;1032224;28;20022;-57
2021/03/29 00:48:49;;;;;;;8.93;3.63;;;;;;;4.89;100.00;97416.72;1040254;28;20018;-56
2021/03/29 00:49:20;;;;;;;8.48;3.92;;;;;;;4.89;100.00;97415.88;1040440;28;20025;-58
2021/03/29 00:49:50;;;;;;;7.18;3.60;;;;;;;4.90;100.00;97420.19;1036294;28;20396;-57
2021/03/29 00:50:36;;;;;;;8.63;4.18;;;;;;;4.90;100.00;97425.47;1028089;28;20563;-58
2021/03/29 00:51:09;;;;;;;9.38;3.55;;;;;;;4.88;100.00;97428.19;1036228;28;20029;-57
2021/03/29 00:51:40;;;;;;;12.55;5.32;;;;;;;4.87;100.00;97423.03;1036277;28;20014;-56
2021/03/29 00:52:11;;;;;;;6.10;3.45;;;;;;;4.86;100.00;97418.69;1040496;28;20500;-57
2021/03/29 00:52:42;;;;;;;11.40;3.72;;;;;;;4.85;100.00;97417.03;1040237;28;20616;-57
2021/03/29 00:53:13;;;;;;;9.02;4.32;;;;;;;4.84;100.00;97421.47;1028207;28;20027;-57
2021/03/29 00:53:46;;;;;;;7.32;3.30;;;;;;;4.86;100.00;97421.31;1044212;28;20047;-58
2021/03/29 00:54:16;;;;;;;7.97;3.55;;;;;;;4.87;100.00;97423.03;1040354;28;20029;-57
2021/03/29 00:54:47;;;;;;;9.75;4.13;;;;;;;4.86;100.00;97418.69;1040233;28;20037;-57
2021/03/29 00:55:18;;;;;;;8.73;3.72;;;;;;;4.86;100.00;97421.31;1040472;28;20029;-58
2021/03/29 00:55:49;;;;;;;6.72;3.50;;;;;;;4.86;100.00;97419.56;1036266;28;20026;-57
2021/03/29 00:56:21;;;;;;;7.90;3.35;;;;;;;4.88;100.00;97422.09;1032228;28;20022;-57
2021/03/29 00:56:51;;;;;;;11.38;4.05;;;;;;;4.87;100.00;97423.03;1044538;28;20513;-59
2021/03/29 00:57:22;;;;;;;7.45;3.35;;;;;;;4.86;100.00;97421.31;1036174;28;20037;-57
2021/03/29 00:57:53;;;;;;;6.45;3.90;;;;;;;4.85;100.00;97417.03;1036219;28;20109;-55
2021/03/29 00:58:25;;;;;;;9.60;4.72;;;;;;;4.84;100.00;97425.84;1028027;28;20035;-57
2021/03/29 00:58:55;;;;;;;6.75;3.38;;;;;;;4.83;100.00;97418.94;1028191;28;20023;-59
2021/03/29 00:59:26;;;;;;;7.20;3.40;;;;;;;4.81;100.00;97423.47;1032191;28;20373;-57
2021/03/29 00:59:57;;;;;;;7.20;3.92;;;;;;;4.80;100.00;97417.34;1036175;28;20112;-57
2021/03/29 01:00:41;;;;;;;6.00;3.38;;;;;;;4.78;100.00;97421.03;1032134;28;20045;-57
2021/03/29 01:01:14;;;;;;;9.27;4.35;;;;;;;4.78;100.00;97421.84;1034063;28;20022;-58
2021/03/29 01:01:47;;;;;;;7.10;3.92;;;;;;;4.78;100.00;97424.50;1034416;28;20030;-56
2021/03/29 01:02:18;;;;;;;7.78;3.67;;;;;;;4.79;100.00;97417.44;1030663;28;20565;-56
2021/03/29 01:02:49;;;;;;;10.05;3.80;;;;;;;4.76;100.00;97422.94;1032309;28;20025;-57
2021/03/29 01:03:22;;;;;;;8.65;4.00;;;;;;;4.73;100.00;97414.25;1040190;28;20534;-56
2021/03/29 01:03:57;;;;;;;7.75;4.13;;;;;;;4.73;100.00;97413.44;1036002;28;20018;-57
2021/03/29 01:04:27;;;;;;;7.88;3.92;;;;;;;4.70;100.00;97418.88;1032278;28;20072;-57
2021/03/29 01:04:58;;;;;;;8.40;3.95;;;;;;;4.62;100.00;97416.78;1036187;28;20025;-57
2021/03/29 01:05:29;;;;;;;6.75;3.97;;;;;;;4.62;100.00;97418.59;1032189;28;20033;-57
2021/03/29 01:06:04;;;;;;;7.63;3.63;;;;;;;4.62;100.00;97416.78;1040267;28;20021;-58
2021/03/29 01:06:37;;;;;;;11.85;3.70;;;;;;;4.60;100.00;97418.69;1041241;28;20479;-58
2021/03/29 01:07:08;;;;;;;8.63;4.28;;;;;;;4.59;100.00;97411.72;1036300;28;20533;-58
2021/03/29 01:07:38;;;;;;;11.30;4.30;;;;;;;4.55;100.00;97417.31;1036073;28;20123;-57
2021/03/29 01:08:10;;;;;;;7.72;4.18;;;;;;;4.54;100.00;97413.81;1036216;28;20048;-57
2021/03/29 01:08:45;;;;;;;7.60;4.53;;;;;;;4.57;100.00;97418.03;1036117;28;20113;-57
2021/03/29 01:09:25;;;;;;;8.48;4.88;;;;;;;4.57;100.00;97410.16;1040444;28;20459;-58
2021/03/29 01:09:55;;;;;;;8.38;3.55;;;;;;;4.58;100.00;97412.69;1040315;28;20017;-57
2021/03/29 01:10:27;;;;;;;7.85;3.97;;;;;;;4.60;100.00;97415.19;1032048;28;20029;-58
2021/03/29 01:10:58;;;;;;;10.15;3.97;;;;;;;4.60;100.00;97415.19;1032165;28;20015;-57
2021/03/29 01:11:30;;;;;;;11.52;4.18;;;;;;;4.58;100.00;97410.06;1028063;28;20037;-58
2021/03/29 01:12:03;;;;;;;9.48;3.88;;;;;;;4.59;100.00;97411.72;1028163;28;20027;-56
2021/03/29 01:12:34;;;;;;;8.48;4.25;;;;;;;4.58;100.00;97412.69;1028134;28;20023;-56
2021/03/29 01:13:08;;;;;;;6.30;4.03;;;;;;;4.58;100.00;97414.44;1032139;28;20042;-57
2021/03/29 01:13:43;;;;;;;8.68;4.18;;;;;;;4.59;100.00;97411.72;1031810;28;20046;-56
2021/03/29 01:14:18;;;;;;;9.77;3.75;;;;;;;4.60;100.00;97408.16;1028558;28;20015;-58
2021/03/29 01:14:49;;;;;;;7.95;3.75;;;;;;;4.63;100.00;97415.84;1032177;28;20019;-57
2021/03/29 01:15:20;;;;;;;8.43;4.40;;;;;;;4.62;100.00;97416.78;1032164;28;20022;-57
2021/03/29 01:15:51;;;;;;;6.30;3.58;;;;;;;4.61;100.00;97409.81;1040164;28;20091;-58
2021/03/29 01:16:22;;;;;;;6.97;3.65;;;;;;;4.63;100.00;97418.47;1036109;28;20056;-57
2021/03/29 01:17:05;;;;;;;8.07;4.40;;;;;;;4.65;100.00;97418.34;1032111;28;20101;-57
2021/03/29 01:17:37;;;;;;;10.18;3.90;;;;;;;4.65;100.00;97419.22;1031554;28;20041;-59
2021/03/29 01:18:09;;;;;;;11.82;4.28;;;;;;;4.66;100.00;97418.25;1035626;28;20045;-56
2021/03/29 01:18:41;;;;;;;7.32;3.90;;;;;;;4.66;100.00;97417.41;1036188;28;20076;-56
2021/03/29 01:19:20;;;;;;;6.72;3.78;;;;;;;4.61;100.00;97411.63;1040283;28;20033;-57
2021/03/29 01:20:01;;;;;;;11.30;4.30;;;;;;;4.70;100.00;97421.53;1032083;28;20019;-57
2021/03/29 01:20:41;;;;;;;7.18;4.03;;;;;;;4.72;100.00;97415.22;1028095;28;20392;-57
2021/03/29 01:21:31;;;;;;;10.13;3.72;;;;;;;4.72;100.00;97417.03;1032200;28;20042;-58
2021/03/29 01:22:04;;;;;;;8.32;3.97;;;;;;;4.75;100.00;97419.44;1040162;28;20017;-57
2021/03/29 01:22:36;;;;;;;9.15;3.95;;;;;;;4.73;100.00;97418.69;1044340;28;20025;-58
2021/03/29 01:23:07;;;;;;;8.93;4.25;;;;;;;4.72;100.00;97419.66;1041101;28;20519;-57
2021/03/29 01:23:38;;;;;;;7.82;4.70;;;;;;;4.72;100.00;97423.13;1044163;28;20017;-56
2021/03/29 01:24:16;;;;;;;13.80;4.10;;;;;;;4.75;100.00;97418.59;1027929;28;20420;-57
2021/03/29 01:24:58;;;;;;;9.10;4.75;;;;;;;4.75;100.00;97422.06;1040225;28;20043;-57
2021/03/29 01:25:42;;;;;;;7.03;4.18;;;;;;;4.77;100.00;97421.97;1040255;28;20025;-58
2021/03/29 01:26:35;;;;;;;8.80;4.38;;;;;;;4.77;100.00;97419.31;1036085;28;20018;-57
2021/03/29 01:27:06;;;;;;;9.90;4.25;;;;;;;4.68;100.00;97416.34;1037803;28;20038;-57
2021/03/29 01:27:48;;;;;;;6.68;3.67;;;;;;;4.71;100.00;97421.44;1032071;28;20022;-59
2021/03/29 01:28:21;;;;;;;9.05;3.95;;;;;;;4.72;100.00;97422.28;1036058;28;20026;-57
2021/03/29 01:28:52;;;;;;;7.88;4.20;;;;;;;4.73;100.00;97423.97;1036056;28;20022;-58
2021/03/29 01:29:30;;;;;;;8.20;4.10;;;;;;;4.70;100.00;97425.03;1036127;28;20029;-57
2021/03/29 01:30:01;;;;;;;7.93;3.42;;;;;;;4.71;100.00;97416.16;1037658;28;20152;-57
2021/03/29 01:30:33;;;;;;;8.82;4.05;;;;;;;4.71;100.00;97423.22;1035970;28;20072;-58
2021/03/29 01:31:04;;;;;;;10.88;4.25;;;;;;;4.69;100.00;97418.06;1032098;28;20512;-56
2021/03/29 01:31:36;;;;;;;9.05;4.32;;;;;;;4.68;100.00;97415.53;1040199;28;20021;-57
2021/03/29 01:32:07;;;;;;;10.10;4.47;;;;;;;4.68;100.00;97420.78;1036123;28;20022;-59
2021/03/29 01:32:39;;;;;;;8.60;4.00;;;;;;;4.69;100.00;97425.94;1039976;28;20029;-57
2021/03/29 01:33:10;;;;;;;10.57;4.65;;;;;;;4.70;100.00;97419.75;1036165;28;20022;-57
2021/03/29 01:33:41;;;;;;;8.65;4.22;;;;;;;4.70;100.00;97425.03;1040095;28;20411;-57
2021/03/29 01:34:13;;;;;;;6.60;4.28;;;;;;;4.70;100.00;97421.53;1032020;28;20022;-58
2021/03/29 01:34:44;;;;;;;9.93;4.57;;;;;;;4.69;100.00;97423.31;1031930;28;20022;-56
2021/03/29 01:35:18;;;;;;;8.25;3.50;;;;;;;4.70;100.00;97419.75;1036137;28;20053;-57
2021/03/29 01:35:55;;;;;;;8.60;4.45;;;;;;;4.67;100.00;97427.84;1044360;28;20166;-57
2021/03/29 01:36:26;;;;;;;7.57;4.22;;;;;;;4.64;100.00;97424.59;1040296;28;20025;-58
2021/03/29 01:36:57;;;;;;;6.97;3.80;;;;;;;4.65;100.00;97420.97;1035910;28;20037;-57
2021/03/29 01:37:28;;;;;;;8.52;3.95;;;;;;;4.66;100.00;97428.78;1032102;28;20045;-57
2021/03/29 01:38:00;;;;;;;8.55;4.38;;;;;;;4.64;100.00;97425.41;1036060;28;20021;-56
2021/03/29 01:38:31;;;;;;;12.35;4.47;;;;;;;4.66;100.00;97427.94;1031943;28;20033;-56
2021/03/29 01:39:02;;;;;;;7.50;4.25;;;;;;;4.63;100.00;97426.38;1027879;28;20033;-59
2021/03/29 01:39:33;;;;;;;9.05;4.40;;;;;;;4.63;100.00;97433.41;1040104;28;20018;-56
2021/03/29 01:40:05;;;;;;;7.95;4.53;;;;;;;4.62;100.00;97421.22;1036142;28;20018;-57
2021/03/29 01:40:38;;;;;;;7.18;3.90;;;;;;;4.64;100.00;97422.78;1027978;28;20063;-56
2021/03/29 01:41:09;;;;;;;8.85;4.20;;;;;;;4.64;100.00;97424.59;1036007;28;20025;-57
2021/03/29 01:41:41;;;;;;;9.68;4.68;;;;;;;4.63;100.00;97422.88;1036125;28;20057;-58
2021/03/29 01:42:12;;;;;;;11.50;5.20;;;;;;;4.57;100.00;97429.41;1031960;28;20019;-57
2021/03/29 01:42:43;;;;;;;9.85;4.18;;;;;;;4.57;100.00;97424.13;1032020;28;20033;-57
2021/03/29 01:43:14;;;;;;;6.32;4.03;;;;;;;4.51;100.00;97419.28;1039901;28;20036;-58
2021/03/29 01:43:45;;;;;;;10.40;4.70;;;;;;;4.56;100.00;97426.88;1039980;28;20009;-55
2021/03/29 01:44:17;;;;;;;11.35;4.63;;;;;;;4.56;100.00;97430.34;1032008;28;20041;-58
2021/03/29 01:44:48;;;;;;;6.80;4.00;;;;;;;4.46;100.00;97410.84;1040219;28;20391;-58
2021/03/29 01:45:19;;;;;;;8.52;4.40;;;;;;;4.51;100.00;97425.41;1031945;28;20018;-56
2021/03/29 01:45:50;;;;;;;8.63;4.18;;;;;;;4.46;100.00;97427.50;1036047;28;20022;-58
2021/03/29 01:46:21;;;;;;;9.50;4.70;;;;;;;4.47;100.00;97423.06;1040101;28;20195;-57
2021/03/29 01:46:52;;;;;;;8.85;4.32;;;;;;;4.46;100.00;97421.34;1036060;28;20017;-56
2021/03/29 01:47:23;;;;;;;8.35;4.95;;;;;;;4.44;100.00;97424.13;1031912;28;20026;-56
2021/03/29 01:47:54;;;;;;;11.55;4.20;;;;;;;4.38;100.00;97421.88;1036060;28;20010;-57
2021/03/29 01:48:25;;;;;;;6.32;3.72;;;;;;;4.39;100.00;97420.94;1031906;28;20492;-57
2021/03/29 01:48:56;;;;;;;10.77;4.75;;;;;;;4.42;100.00;97425.16;1027971;28;20113;-58
2021/03/29 01:49:27;;;;;;;6.63;4.00;;;;;;;4.42;100.00;97425.16;1031881;28;20022;-56
2021/03/29 01:49:58;;;;;;;6.82;4.45;;;;;;;4.42;100.00;97414.63;1036092;28;20117;-57
2021/03/29 01:50:30;;;;;;;10.57;4.40;;;;;;;4.42;100.00;97425.16;1031925;28;20015;-56
2021/03/29 01:51:01;;;;;;;9.88;4.28;;;;;;;4.39;100.00;97426.22;1040197;28;20415;-57
2021/03/29 01:51:32;;;;;;;9.45;4.35;;;;;;;4.39;100.00;97425.34;1036043;28;20171;-57
2021/03/29 01:52:04;;;;;;;7.13;3.88;;;;;;;4.36;100.00;97426.41;1036123;28;20021;-57
2021/03/29 01:52:35;;;;;;;6.10;4.07;;;;;;;4.36;100.00;97426.41;1036017;28;20476;-57
2021/03/29 01:53:07;;;;;;;9.27;4.25;;;;;;;4.34;100.00;97425.66;1031961;28;20018;-57
2021/03/29 01:53:38;;;;;;;7.60;4.30;;;;;;;4.34;100.00;97428.28;1031638;28;20018;-54
2021/03/29 01:54:09;;;;;;;8.27;4.10;;;;;;;4.33;100.00;97432.69;1031973;28;20480;-57
2021/03/29 01:54:40;;;;;;;7.82;4.43;;;;;;;4.32;100.00;97430.19;1036107;28;20039;-56
2021/03/29 01:55:10;;;;;;;10.25;4.43;;;;;;;4.32;100.00;97422.31;1040174;28;20124;-58
2021/03/29 01:55:41;;;;;;;9.75;4.38;;;;;;;4.30;100.00;97427.66;1036055;28;20033;-57
2021/03/29 01:56:12;;;;;;;10.75;4.13;;;;;;;4.28;100.00;97419.00;1032033;28;20022;-58
2021/03/29 01:56:43;;;;;;;8.02;4.70;;;;;;;4.29;100.00;97430.38;1036145;28;20017;-57
2021/03/29 01:57:14;;;;;;;8.07;4.00;;;;;;;4.28;100.00;97429.50;1036143;28;20037;-58
2021/03/29 01:57:45;;;;;;;11.15;4.28;;;;;;;4.28;100.00;97428.69;1039973;28;20021;-56
2021/03/29 01:58:17;;;;;;;9.93;4.13;;;;;;;4.29;100.00;97422.50;1031958;28;20018;-59
2021/03/29 01:58:48;;;;;;;8.18;4.35;;;;;;;4.26;100.00;97423.50;1036022;28;20013;-57
2021/03/29 01:59:19;;;;;;;10.70;4.28;;;;;;;4.26;100.00;97423.50;1032009;28;20452;-55
2021/03/29 01:59:49;;;;;;;9.07;4.85;;;;;;;4.25;100.00;97435.00;1031935;28;20061;-57
2021/03/29 02:00:24;;;;;;;8.48;4.72;;;;;;;4.25;100.00;97424.47;1040059;28;20021;-58
2021/03/29 02:00:58;;;;;;;8.93;4.38;;;;;;;4.25;100.00;97432.38;1036037;28;20383;-57
2021/03/29 02:01:28;;;;;;;10.77;5.03;;;;;;;4.20;100.00;97426.56;1032053;28;20420;-58
2021/03/29 02:02:00;;;;;;;5.75;4.18;;;;;;;4.19;100.00;97432.75;1031835;28;20057;-56
2021/03/29 02:02:31;;;;;;;8.90;4.45;;;;;;;4.19;100.00;97430.13;1035912;28;20499;-58
2021/03/29 02:03:10;;;;;;;9.70;4.60;;;;;;;4.21;100.00;97430.03;1040184;28;20025;-56
2021/03/29 02:03:41;;;;;;;9.93;4.40;;;;;;;4.18;100.00;97436.34;1031774;28;20108;-58
2021/03/29 02:04:12;;;;;;;11.10;4.40;;;;;;;4.14;100.00;97432.19;1040063;28;20025;-56
2021/03/29 02:04:42;;;;;;;8.90;4.70;;;;;;;4.12;100.00;97437.56;1032083;28;20030;-58
2021/03/29 02:05:14;;;;;;;8.10;4.13;;;;;;;4.14;100.00;97434.84;1032211;28;20451;-57
2021/03/29 02:05:46;;;;;;;8.68;4.38;;;;;;;4.15;100.00;97439.16;1031997;28;20022;-57
2021/03/29 02:06:17;;;;;;;7.97;4.25;;;;;;;4.16;100.00;97435.56;1031999;28;20169;-56
2021/03/29 02:06:48;;;;;;;8.05;4.05;;;;;;;4.15;100.00;97429.47;1032210;28;20068;-57
2021/03/29 02:07:19;;;;;;;9.77;4.30;;;;;;;4.12;100.00;97419.16;1028097;28;20495;-58
2021/03/29 02:07:50;;;;;;;9.70;4.40;;;;;;;4.17;100.00;97429.38;1036083;28;20026;-57
2021/03/29 02:08:20;;;;;;;8.25;4.30;;;;;;;4.15;100.00;97429.47;1031938;28;20531;-57
2021/03/29 02:08:51;;;;;;;7.80;3.90;;;;;;;4.16;100.00;97432.94;1036612;28;20026;-58
2021/03/29 02:09:22;;;;;;;12.18;4.55;;;;;;;4.15;100.00;97429.47;1036407;28;20511;-56
2021/03/29 02:09:53;;;;;;;8.45;3.75;;;;;;;4.15;100.00;97428.66;1028371;28;20022;-57
2021/03/29 02:10:25;;;;;;;7.03;4.20;;;;;;;4.14;100.00;97432.19;1032322;28;20034;-57
2021/03/29 02:10:56;;;;;;;9.70;4.63;;;;;;;4.15;100.00;97433.91;1028546;28;20026;-55
2021/03/29 02:11:27;;;;;;;9.65;4.28;;;;;;;4.14;100.00;97426.94;1033156;28;20025;-58
2021/03/29 02:11:58;;;;;;;9.55;4.90;;;;;;;4.13;100.00;97433.16;1037379;28;20014;-57
2021/03/29 02:12:28;;;;;;;13.18;4.45;;;;;;;4.12;100.00;97426.22;1045481;28;20024;-57
2021/03/29 02:13:01;;;;;;;8.70;4.55;;;;;;;4.12;100.00;97434.09;1041646;28;20024;-57
2021/03/29 02:13:34;;;;;;;8.82;4.53;;;;;;;4.09;100.00;97435.16;1037408;28;20029;-57
2021/03/29 02:14:05;;;;;;;8.77;4.95;;;;;;;4.09;100.00;97431.66;1029406;28;20023;-57
2021/03/29 02:14:36;;;;;;;8.70;4.63;;;;;;;4.11;100.00;97430.63;1040908;28;20024;-55
2021/03/29 02:15:10;;;;;;;10.18;4.15;;;;;;;4.07;100.00;97426.50;1040026;28;20099;-57
2021/03/29 02:15:42;;;;;;;8.38;4.43;;;;;;;4.09;100.00;97437.78;1035954;28;20022;-57
2021/03/29 02:16:14;;;;;;;9.40;4.32;;;;;;;4.11;100.00;97432.41;1035986;28;20129;-57
2021/03/29 02:16:46;;;;;;;10.02;5.00;;;;;;;4.12;100.00;97434.09;1035978;28;20029;-56
2021/03/29 02:17:17;;;;;;;8.52;4.07;;;;;;;4.11;100.00;97425.38;1027950;28;20027;-57
2021/03/29 02:17:50;;;;;;;9.25;4.60;;;;;;;4.10;100.00;97430.72;1040114;28;20029;-57
2021/03/29 02:18:22;;;;;;;8.50;4.18;;;;;;;4.09;100.00;97429.03;1040079;28;20116;-58
2021/03/29 02:18:54;;;;;;;7.38;4.47;;;;;;;4.10;100.00;97431.56;1040732;28;20141;-57
2021/03/29 02:19:24;;;;;;;8.65;4.57;;;;;;;4.10;100.00;97428.09;1036773;28;20118;-57
2021/03/29 02:19:55;;;;;;;9.98;4.93;;;;;;;4.11;100.00;97429.75;1035870;28;20026;-58
2021/03/29 02:20:29;;;;;;;11.27;4.70;;;;;;;4.10;100.00;97436.81;1035819;28;20029;-57
2021/03/29 02:21:01;;;;;;;10.57;4.78;;;;;;;4.08;100.00;97425.56;1031966;28;20420;-57
2021/03/29 02:21:34;;;;;;;7.47;4.50;;;;;;;4.07;100.00;97429.13;1031897;28;20472;-57
2021/03/29 02:22:05;;;;;;;8.02;4.30;;;;;;;4.07;100.00;97436.16;1031830;28;20097;-57
2021/03/29 02:22:36;;;;;;;8.20;4.72;;;;;;;4.05;100.00;97424.91;1039921;28;20463;-57
2021/03/29 02:23:07;;;;;;;8.55;5.07;;;;;;;4.06;100.00;97443.22;1044247;28;20009;-57
2021/03/29 02:23:40;;;;;;;8.65;4.25;;;;;;;4.06;100.00;97440.59;1031739;28;20026;-57
2021/03/29 02:24:11;;;;;;;8.85;4.68;;;;;;;4.07;100.00;97436.16;1031870;28;20014;-56
2021/03/29 02:24:42;;;;;;;9.35;4.68;;;;;;;4.03;100.00;97434.69;1035797;28;20038;-57
2021/03/29 02:25:13;;;;;;;12.15;5.03;;;;;;;4.05;100.00;97438.06;1031905;28;20015;-57
2021/03/29 02:25:45;;;;;;;11.68;4.72;;;;;;;4.03;100.00;97435.53;1035912;28;20010;-57
2021/03/29 02:26:19;;;;;;;10.63;5.20;;;;;;;4.03;100.00;97434.69;1035951;28;20028;-57
2021/03/29 02:26:49;;;;;;;9.00;4.65;;;;;;;4.02;100.00;97433.81;1031713;28;20284;-57
2021/03/29 02:27:20;;;;;;;9.27;4.65;;;;;;;4.03;100.00;97432.06;1035960;28;20018;-57
2021/03/29 02:27:51;;;;;;;9.65;4.57;;;;;;;4.03;100.00;97435.53;1031810;28;20016;-57
2021/03/29 02:28:22;;;;;;;9.50;4.75;;;;;;;4.02;100.00;97433.81;1040001;28;20022;-58
2021/03/29 02:28:53;;;;;;;8.82;4.50;;;;;;;4.03;100.00;97439.94;1035529;28;20010;-58
2021/03/29 02:29:27;;;;;;;9.65;4.60;;;;;;;4.02;100.00;97438.25;1031896;28;20018;-56
2021/03/29 02:29:58;;;;;;;7.35;4.03;;;;;;;4.02;100.00;97431.19;1027783;28;20483;-56
2021/03/29 02:30:37;;;;;;;10.45;4.03;;;;;;;4.04;100.00;97441.63;1031733;28;20045;-57
2021/03/29 02:31:08;;;;;;;14.07;5.18;;;;;;;4.03;100.00;97432.91;1041744;28;20017;-58
2021/03/29 02:31:39;;;;;;;9.15;5.05;;;;;;;4.02;100.00;97438.25;1035822;28;20022;-57